createdAt,value
2022-10-17T00:09:38.786Z,8.20
2022-10-17T00:14:41.554Z,6.75
2022-10-17T00:19:44.331Z,7.00
2022-10-17T00:24:48.441Z,13.85
2022-10-17T00:29:51.913Z,8.18
2022-10-17T00:34:54.644Z,9.00
2022-10-17T00:39:59.402Z,7.40
2022-10-17T00:45:16.344Z,7.47
2022-10-17T00:50:20.480Z,8.52
2022-10-17T00:55:29.336Z,9.15
2022-10-17T01:00:32.644Z,11.60
2022-10-17T01:05:35.841Z,8.70
2022-10-17T01:10:49.448Z,8.63
2022-10-17T01:16:00.396Z,12.50
2022-10-17T01:21:41.216Z,13.73
2022-10-17T01:27:00.168Z,9.35
2022-10-17T01:32:09.870Z,10.02
2022-10-17T01:37:20.174Z,10.88
2022-10-17T01:42:28.645Z,11.02
2022-10-17T01:47:34.922Z,9.50
2022-10-17T01:52:43.869Z,12.27
2022-10-17T01:57:51.429Z,8.63
2022-10-17T02:03:00.030Z,9.93
2022-10-17T02:08:02.849Z,9.98
2022-10-17T02:13:16.245Z,11.88
2022-10-17T02:18:48.000Z,9.68
2022-10-17T02:23:56.067Z,13.13
2022-10-17T02:29:07.649Z,12.40
2022-10-17T02:34:18.013Z,12.13
2022-10-17T02:44:27.725Z,10.30
2022-10-17T02:49:37.506Z,10.07
2022-10-17T02:54:44.135Z,9.80
2022-10-17T02:59:48.311Z,11.35
2022-10-17T03:04:52.680Z,10.48
2022-10-17T03:09:55.544Z,11.32
2022-10-17T03:14:58.762Z,9.13
2022-10-17T03:20:03.253Z,13.52
2022-10-17T03:25:06.708Z,12.55
2022-10-17T03:30:12.172Z,14.10
2022-10-17T03:35:16.917Z,10.32
2022-10-17T03:40:24.013Z,14.63
2022-10-17T03:45:26.859Z,11.57
2022-10-17T03:50:31.317Z,14.93
2022-10-17T03:55:35.480Z,13.43
2022-10-17T04:00:38.308Z,10.93
2022-10-17T04:05:42.868Z,9.98
2022-10-17T04:10:46.890Z,12.35
2022-10-17T04:15:55.717Z,11.93
2022-10-17T04:21:02.433Z,12.35
2022-10-17T04:26:08.206Z,16.33
2022-10-17T04:31:14.009Z,11.00
2022-10-17T04:36:37.861Z,14.38
2022-10-17T04:41:40.793Z,13.18
2022-10-17T04:46:43.761Z,14.00
2022-10-17T04:51:48.056Z,17.23
2022-10-17T04:56:57.497Z,12.98
2022-10-17T05:02:01.112Z,16.30
2022-10-17T05:07:05.688Z,12.52
2022-10-17T05:12:14.124Z,13.75
2022-10-17T05:17:20.496Z,16.85
2022-10-17T05:22:24.790Z,12.15
2022-10-17T05:27:28.001Z,16.05
2022-10-17T05:32:31.344Z,15.38
2022-10-17T05:37:36.174Z,12.30
2022-10-17T05:47:48.728Z,15.90
2022-10-17T05:52:56.069Z,15.98
2022-10-17T05:58:00.794Z,15.57
2022-10-17T06:03:10.951Z,12.77
2022-10-17T06:08:15.271Z,9.63
2022-10-17T06:13:19.548Z,10.93
2022-10-17T06:18:26.588Z,6.13
2022-10-17T06:23:31.420Z,7.10
2022-10-17T06:28:45.174Z,9.27
2022-10-17T06:33:48.880Z,9.75
2022-10-17T06:38:53.195Z,10.85
2022-10-17T06:44:08.381Z,10.55
2022-10-17T06:49:29.854Z,11.52
2022-10-17T06:54:52.866Z,10.88
2022-10-17T07:00:18.360Z,13.13
2022-10-17T07:05:25.929Z,6.50
2022-10-17T07:10:30.108Z,6.93
2022-10-17T07:15:33.314Z,10.15
2022-10-17T07:20:36.574Z,8.52
2022-10-17T07:25:40.773Z,7.82
2022-10-17T07:30:47.520Z,8.65
2022-10-17T07:35:53.746Z,8.23
2022-10-17T07:40:59.365Z,8.43
2022-10-17T07:46:02.951Z,6.90
2022-10-17T07:51:08.880Z,7.53
2022-10-17T07:56:13.390Z,6.30
2022-10-17T08:01:16.346Z,9.23
2022-10-17T08:06:19.419Z,7.82
2022-10-17T08:11:25.310Z,7.43
2022-10-17T08:16:28.129Z,6.63
2022-10-17T08:21:31.256Z,9.45
2022-10-17T08:26:38.027Z,7.38
2022-10-17T08:31:47.490Z,12.90
2022-10-17T08:36:51.625Z,6.88
2022-10-17T08:42:07.229Z,5.63
2022-10-17T08:47:15.825Z,6.18
2022-10-17T08:52:26.749Z,5.13
2022-10-17T08:57:31.547Z,12.30
2022-10-17T09:02:42.454Z,7.18
2022-10-17T09:07:54.536Z,6.55
2022-10-17T09:13:16.856Z,6.22
2022-10-17T09:18:24.973Z,7.53
2022-10-17T09:23:32.225Z,7.40
2022-10-17T09:28:39.173Z,6.40
2022-10-17T09:33:59.207Z,7.88
2022-10-17T09:39:05.371Z,7.47
2022-10-17T09:44:18.585Z,4.78
2022-10-17T09:49:29.316Z,3.42
2022-10-17T09:54:42.416Z,6.20
2022-10-17T09:59:57.894Z,5.18
2022-10-17T10:05:04.654Z,6.38
2022-10-17T10:10:23.904Z,3.65
2022-10-17T10:15:37.719Z,5.90
2022-10-17T10:20:41.687Z,7.90
2022-10-17T10:25:54.547Z,6.97
2022-10-17T10:31:01.367Z,3.30
2022-10-17T10:36:07.813Z,6.53
2022-10-17T10:41:12.328Z,5.38
2022-10-17T10:46:21.424Z,5.13
2022-10-17T10:51:30.327Z,5.65
2022-10-17T10:56:38.774Z,4.07
2022-10-17T11:01:49.862Z,7.35
2022-10-17T11:06:59.222Z,3.97
2022-10-17T11:12:07.959Z,8.35
2022-10-17T11:17:19.724Z,5.68
2022-10-17T11:22:29.276Z,6.50
2022-10-17T11:27:32.869Z,12.45
2022-10-17T11:32:43.418Z,8.77
2022-10-17T11:37:51.131Z,4.30
2022-10-17T11:43:00.889Z,11.05
2022-10-17T11:48:13.199Z,8.90
2022-10-17T11:53:18.192Z,5.68
2022-10-17T11:58:36.669Z,6.22
2022-10-17T12:04:12.161Z,7.80
2022-10-17T12:09:23.998Z,5.70
2022-10-17T12:14:44.014Z,7.38
2022-10-17T12:19:48.271Z,5.28
2022-10-17T12:24:57.729Z,7.57
2022-10-17T12:30:02.028Z,5.45
2022-10-17T12:35:06.813Z,3.92
2022-10-17T12:40:48.460Z,7.80
2022-10-17T12:45:53.684Z,5.53
2022-10-17T12:51:35.261Z,8.60
2022-10-17T12:56:36.421Z,8.60
2022-10-17T13:01:40.907Z,7.45
2022-10-17T13:06:48.654Z,10.20
2022-10-17T13:11:52.381Z,6.35
2022-10-17T13:16:57.457Z,7.38
2022-10-17T13:22:07.063Z,10.65
2022-10-17T13:27:24.537Z,9.15
2022-10-17T13:32:37.718Z,12.85
2022-10-17T13:37:43.483Z,5.47
2022-10-17T13:42:47.033Z,6.07
2022-10-17T13:47:49.961Z,10.43
2022-10-17T13:53:19.489Z,5.72
2022-10-17T13:58:22.462Z,7.13
2022-10-17T14:03:32.538Z,12.82
2022-10-17T14:08:55.244Z,10.73
2022-10-17T14:13:59.187Z,7.38
2022-10-17T14:19:02.066Z,8.43
2022-10-17T14:24:27.330Z,5.97
2022-10-17T14:29:31.896Z,8.52
2022-10-17T14:34:36.770Z,7.07
2022-10-17T14:39:40.994Z,7.38
2022-10-17T14:44:43.828Z,6.13
2022-10-17T14:49:50.857Z,8.70
2022-10-17T14:54:55.303Z,10.82
2022-10-17T14:59:58.159Z,10.27
2022-10-17T15:05:00.880Z,7.90
2022-10-17T15:10:06.072Z,4.97
2022-10-17T15:15:09.510Z,5.40
2022-10-17T15:20:15.811Z,8.68
2022-10-17T15:25:19.985Z,8.68
2022-10-17T15:30:26.341Z,7.05
2022-10-17T15:35:30.016Z,8.52
2022-10-17T15:40:34.256Z,7.38
2022-10-17T15:45:37.773Z,7.45
2022-10-17T15:50:40.512Z,6.47
2022-10-17T15:55:44.695Z,8.75
2022-10-17T16:00:48.567Z,9.60
2022-10-17T16:05:51.348Z,11.35
2022-10-17T16:10:55.616Z,10.23
2022-10-17T16:15:58.478Z,9.32
2022-10-17T16:21:01.233Z,11.32
2022-10-17T16:26:05.423Z,8.02
2022-10-17T16:31:19.209Z,9.77
2022-10-17T16:36:22.235Z,8.80
2022-10-17T16:41:28.631Z,10.05
2022-10-17T16:46:32.635Z,10.07
2022-10-17T16:51:36.653Z,10.85
2022-10-17T16:56:42.088Z,11.82
2022-10-17T17:01:44.843Z,12.65
2022-10-17T17:06:47.542Z,14.38
2022-10-17T17:11:51.685Z,12.63
2022-10-17T17:16:54.528Z,10.50
2022-10-17T17:21:57.324Z,11.68
2022-10-17T17:27:01.452Z,14.02
2022-10-17T17:32:04.252Z,16.23
2022-10-17T17:37:07.115Z,13.05
2022-10-17T17:42:11.253Z,12.63
2022-10-17T17:47:14.370Z,12.63
2022-10-17T17:52:17.118Z,14.23
2022-10-17T17:57:21.308Z,15.63
2022-10-17T18:02:24.061Z,15.23
2022-10-17T18:07:27.219Z,14.00
2022-10-17T18:12:31.815Z,22.77
2022-10-17T18:17:35.483Z,16.77
2022-10-17T18:22:38.272Z,23.17
2022-10-17T18:27:42.583Z,14.65
2022-10-17T18:32:45.365Z,20.33
2022-10-17T18:37:49.846Z,14.05
2022-10-17T18:42:54.045Z,18.45
2022-10-17T18:47:56.837Z,13.35
2022-10-17T18:52:59.972Z,16.70
2022-10-17T18:58:04.116Z,17.40
2022-10-17T19:03:07.651Z,17.05
2022-10-17T19:08:10.430Z,15.38
2022-10-17T19:13:19.217Z,20.55
2022-10-17T19:18:23.562Z,17.10
2022-10-17T19:23:26.316Z,15.70
2022-10-17T19:28:30.698Z,16.83
2022-10-17T19:33:35.369Z,17.65
2022-10-17T19:38:38.336Z,18.23
2022-10-17T19:43:44.508Z,19.98
2022-10-17T19:48:48.984Z,17.23
2022-10-17T19:53:52.564Z,23.75
2022-10-17T19:58:57.233Z,20.63
2022-10-17T20:04:00.007Z,23.15
2022-10-17T20:09:02.832Z,19.23
2022-10-17T20:14:07.349Z,24.85
2022-10-17T20:19:13.546Z,22.38
2022-10-17T20:24:17.809Z,18.95
2022-10-17T20:29:23.967Z,20.98
2022-10-17T20:34:26.736Z,19.42
2022-10-17T20:39:30.388Z,25.08
2022-10-17T20:44:34.618Z,26.88
2022-10-17T20:49:37.463Z,22.67
2022-10-17T20:54:40.377Z,25.88
2022-10-17T20:59:45.605Z,26.25
2022-10-17T21:04:49.854Z,27.27
2022-10-17T21:09:52.648Z,26.55
2022-10-17T21:14:56.828Z,27.65
2022-10-17T21:19:59.635Z,26.83
2022-10-17T21:25:02.570Z,27.73
2022-10-17T21:35:15.856Z,26.30
2022-10-17T21:40:18.698Z,22.27
2022-10-17T21:45:25.761Z,22.65
2022-10-17T21:50:29.313Z,25.67
2022-10-17T21:55:32.043Z,26.80
2022-10-17T22:00:36.181Z,22.60
2022-10-17T22:05:38.920Z,28.45
2022-10-17T22:10:41.977Z,34.20
2022-10-17T22:15:46.101Z,34.15
2022-10-17T22:20:48.882Z,32.63
2022-10-17T22:25:54.882Z,29.73
2022-10-17T22:30:59.288Z,28.90
2022-10-17T22:36:02.543Z,34.00
2022-10-17T22:41:05.992Z,37.72
2022-10-17T22:46:13.445Z,34.53
2022-10-17T22:51:16.353Z,48.17
2022-10-17T22:56:21.467Z,35.30
2022-10-17T23:01:26.628Z,34.90
2022-10-17T23:06:29.506Z,41.85
2022-10-17T23:11:32.310Z,46.47
2022-10-17T23:16:36.409Z,41.88
2022-10-17T23:21:39.148Z,38.08
2022-10-17T23:26:41.904Z,39.38
2022-10-17T23:31:46.115Z,47.83
2022-10-17T23:36:49.201Z,40.47
2022-10-17T23:41:51.965Z,46.17
2022-10-17T23:46:56.092Z,42.83
2022-10-17T23:51:58.861Z,43.00
2022-10-17T23:57:01.691Z,40.33
